createdAt,value
2017-07-08T00:00:27.895Z,49.33
2017-07-08T00:02:54.709Z,52.47
2017-07-08T00:05:20.770Z,50.03
2017-07-08T00:07:46.802Z,50.40
2017-07-08T00:10:12.873Z,49.03
2017-07-08T00:12:39.669Z,51.70
2017-07-08T00:15:05.733Z,46.63
2017-07-08T00:17:31.771Z,50.97
2017-07-08T00:19:57.805Z,49.00
2017-07-08T00:22:23.837Z,52.63
2017-07-08T00:24:50.637Z,50.87
2017-07-08T00:27:16.693Z,51.20
2017-07-08T00:29:42.761Z,54.33
2017-07-08T00:32:08.790Z,54.40
2017-07-08T00:34:35.590Z,53.00
2017-07-08T00:37:01.621Z,49.23
2017-07-08T00:39:28.402Z,52.67
2017-07-08T00:41:54.453Z,51.03
2017-07-08T00:44:21.261Z,47.27
2017-07-08T00:46:47.326Z,51.20
2017-07-08T00:49:13.350Z,48.90
2017-07-08T00:51:39.388Z,50.47
2017-07-08T00:54:05.433Z,47.27
2017-07-08T00:56:32.205Z,51.67
2017-07-08T00:58:58.241Z,49.37
2017-07-08T01:01:24.273Z,50.00
2017-07-08T01:03:51.069Z,48.83
2017-07-08T01:06:17.137Z,48.50
2017-07-08T01:08:43.381Z,48.37
2017-07-08T01:11:09.426Z,47.23
2017-07-08T01:13:35.483Z,45.47
2017-07-08T01:16:01.509Z,49.80
2017-07-08T01:18:27.569Z,45.57
2017-07-08T01:20:53.590Z,46.73
2017-07-08T01:23:19.631Z,44.63
2017-07-08T01:25:45.678Z,39.93
2017-07-08T01:28:12.469Z,43.67
2017-07-08T01:30:38.493Z,43.43
2017-07-08T01:33:04.545Z,45.57
2017-07-08T01:35:30.593Z,41.57
2017-07-08T01:37:56.621Z,40.23
2017-07-08T01:40:23.433Z,40.00
2017-07-08T01:42:49.594Z,39.97
2017-07-08T01:45:15.670Z,42.10
2017-07-08T01:47:42.444Z,42.27
2017-07-08T01:50:08.489Z,38.70
2017-07-08T01:52:34.521Z,37.73
2017-07-08T01:55:01.306Z,37.13
2017-07-08T01:57:27.358Z,36.70
2017-07-08T01:59:54.150Z,35.70
2017-07-08T02:02:20.193Z,35.10
2017-07-08T02:04:46.985Z,34.17
2017-07-08T02:07:13.000Z,35.90
2017-07-08T02:09:39.024Z,34.50
2017-07-08T02:12:05.062Z,36.23
2017-07-08T02:14:38.094Z,36.00
2017-07-08T02:17:04.122Z,39.70
2017-07-08T02:19:30.877Z,40.50
2017-07-08T02:21:56.926Z,36.20
2017-07-08T02:24:22.942Z,38.57
2017-07-08T02:26:49.000Z,39.27
2017-07-08T02:29:15.025Z,38.20
2017-07-08T02:31:41.053Z,39.97
2017-07-08T02:34:07.067Z,42.20
2017-07-08T02:36:33.092Z,40.43
2017-07-08T02:38:59.121Z,39.27
2017-07-08T02:41:25.913Z,39.83
2017-07-08T02:43:51.936Z,39.83
2017-07-08T02:46:17.974Z,36.80
2017-07-08T02:48:44.009Z,39.70
2017-07-08T02:51:10.030Z,37.90
2017-07-08T02:53:36.074Z,40.07
2017-07-08T02:56:02.097Z,40.70
2017-07-08T02:58:28.861Z,39.73
2017-07-08T03:00:54.878Z,39.67
2017-07-08T03:03:20.909Z,34.93
2017-07-08T03:05:46.974Z,36.63
2017-07-08T03:08:13.054Z,35.00
2017-07-08T03:10:39.836Z,34.10
2017-07-08T03:13:05.903Z,36.17
2017-07-08T03:15:31.970Z,34.10
2017-07-08T03:17:58.162Z,33.73
2017-07-08T03:20:24.197Z,33.83
2017-07-08T03:22:50.217Z,34.30
2017-07-08T03:25:17.021Z,33.80
2017-07-08T03:27:43.060Z,35.33
2017-07-08T03:30:09.846Z,34.50
2017-07-08T03:32:42.926Z,34.00
2017-07-08T03:35:08.990Z,36.40
2017-07-08T03:37:35.026Z,36.23
2017-07-08T03:40:01.072Z,38.13
2017-07-08T03:42:27.098Z,34.40
2017-07-08T03:44:53.872Z,37.27
2017-07-08T03:47:19.925Z,35.80
2017-07-08T03:49:46.697Z,32.90
2017-07-08T03:52:12.758Z,33.63
2017-07-08T03:54:39.534Z,33.53
2017-07-08T03:57:05.594Z,32.53
2017-07-08T03:59:31.618Z,38.40
2017-07-08T04:01:58.391Z,40.00
2017-07-08T04:04:24.414Z,39.53
2017-07-08T04:06:50.450Z,40.30
2017-07-08T04:09:16.465Z,39.47
2017-07-08T04:11:42.508Z,38.67
2017-07-08T04:14:08.521Z,39.43
2017-07-08T04:16:34.537Z,40.03
2017-07-08T04:19:00.625Z,45.90
2017-07-08T04:21:26.658Z,41.50
2017-07-08T04:23:52.681Z,43.63
2017-07-08T04:26:18.718Z,43.73
2017-07-08T04:28:44.749Z,47.43
2017-07-08T04:31:11.514Z,51.73
2017-07-08T04:33:37.581Z,55.10
2017-07-08T04:36:03.613Z,54.80
2017-07-08T04:38:29.718Z,56.03
2017-07-08T04:40:55.729Z,55.37
2017-07-08T04:43:21.778Z,55.50
2017-07-08T04:45:47.812Z,54.00
2017-07-08T04:48:14.589Z,54.00
2017-07-08T04:50:40.634Z,51.47
2017-07-08T04:53:07.428Z,50.70
2017-07-08T04:55:33.489Z,48.27
2017-07-08T04:58:00.253Z,47.97
2017-07-08T05:00:26.285Z,49.30
2017-07-08T05:02:52.314Z,47.67
2017-07-08T05:05:18.337Z,47.53
2017-07-08T05:07:45.112Z,46.53
2017-07-08T05:10:11.137Z,48.53
2017-07-08T05:12:37.166Z,48.07
2017-07-08T05:15:03.973Z,45.10
2017-07-08T05:17:30.005Z,46.07
2017-07-08T05:19:56.025Z,46.97
2017-07-08T05:22:22.809Z,42.57
2017-07-08T05:24:48.862Z,40.93
2017-07-08T05:27:15.638Z,43.17
2017-07-08T05:29:41.743Z,43.40
2017-07-08T05:32:07.786Z,42.03
2017-07-08T05:34:33.824Z,39.80
2017-07-08T05:36:59.845Z,41.17
2017-07-08T05:39:25.879Z,37.33
2017-07-08T05:41:51.929Z,38.80
2017-07-08T05:44:18.737Z,36.63
2017-07-08T05:46:44.790Z,34.37
2017-07-08T05:49:10.893Z,36.87
2017-07-08T05:51:37.653Z,32.03
2017-07-08T05:54:03.749Z,31.27
2017-07-08T05:56:29.785Z,29.60
2017-07-08T05:58:55.838Z,27.63
2017-07-08T06:01:22.609Z,25.73
2017-07-08T06:03:48.633Z,26.00
2017-07-08T06:06:14.689Z,25.90
2017-07-08T06:08:41.481Z,22.70
2017-07-08T06:11:07.534Z,22.33
2017-07-08T06:13:33.591Z,20.00
2017-07-08T06:15:59.622Z,19.97
2017-07-08T06:18:25.649Z,17.87
2017-07-08T06:20:51.723Z,17.90
2017-07-08T06:23:17.769Z,17.20
2017-07-08T06:25:43.805Z,15.63
2017-07-08T06:28:09.847Z,15.00
2017-07-08T06:30:35.897Z,16.70
2017-07-08T06:33:01.934Z,15.10
2017-07-08T06:35:27.965Z,15.40
2017-07-08T06:37:54.000Z,15.27
2017-07-08T06:40:20.822Z,13.20
2017-07-08T06:42:46.886Z,14.27
2017-07-08T06:45:12.921Z,12.53
2017-07-08T06:47:38.946Z,11.33
2017-07-08T06:50:04.981Z,10.80
2017-07-08T06:52:31.761Z,10.70
2017-07-08T06:54:57.822Z,9.60
2017-07-08T06:57:23.889Z,9.13
2017-07-08T06:59:50.055Z,8.70
2017-07-08T07:02:16.122Z,7.43
2017-07-08T07:04:42.160Z,7.33
2017-07-08T07:07:08.977Z,6.30
2017-07-08T07:09:35.779Z,7.23
2017-07-08T07:12:01.823Z,7.40
2017-07-08T07:14:27.866Z,7.40
2017-07-08T07:16:53.890Z,7.77
2017-07-08T07:19:19.948Z,7.10
2017-07-08T07:21:46.012Z,7.13
2017-07-08T07:24:12.342Z,6.07
2017-07-08T07:26:38.421Z,6.30
2017-07-08T07:29:04.445Z,6.30
2017-07-08T07:31:30.529Z,6.47
2017-07-08T07:33:56.581Z,6.47
2017-07-08T07:36:22.642Z,6.00
2017-07-08T07:38:48.699Z,6.60
2017-07-08T07:41:14.754Z,5.80
2017-07-08T07:43:40.795Z,6.63
2017-07-08T07:46:06.852Z,7.03
2017-07-08T07:48:33.621Z,7.63
2017-07-08T07:50:59.894Z,5.90
2017-07-08T07:53:26.029Z,7.00
2017-07-08T07:55:52.065Z,6.83
2017-07-08T07:58:18.098Z,7.50
2017-07-08T08:00:44.141Z,8.93
2017-07-08T08:03:10.182Z,9.90
2017-07-08T08:05:36.226Z,9.20
2017-07-08T08:08:02.253Z,9.83
2017-07-08T08:10:29.016Z,8.57
2017-07-08T08:12:55.046Z,7.27
2017-07-08T08:15:21.069Z,6.30
2017-07-08T08:17:47.114Z,5.50
2017-07-08T08:20:13.136Z,5.50
2017-07-08T08:22:39.655Z,5.20
2017-07-08T08:25:05.902Z,5.30
2017-07-08T08:27:31.945Z,5.70
2017-07-08T08:29:58.722Z,5.40
2017-07-08T08:32:24.733Z,5.00
2017-07-08T08:34:50.783Z,4.97
2017-07-08T08:37:16.822Z,4.70
2017-07-08T08:39:42.999Z,4.07
2017-07-08T08:42:09.058Z,4.50
2017-07-08T08:44:35.110Z,4.47
2017-07-08T08:47:01.129Z,3.83
2017-07-08T08:49:27.146Z,5.00
2017-07-08T08:51:53.194Z,4.40
2017-07-08T08:54:19.213Z,4.03
2017-07-08T08:56:45.254Z,4.27
2017-07-08T08:59:11.301Z,4.70
2017-07-08T09:01:37.329Z,3.93
2017-07-08T09:04:03.367Z,4.00
2017-07-08T09:06:29.438Z,4.43
2017-07-08T09:08:55.501Z,3.43
2017-07-08T09:11:22.286Z,4.83
2017-07-08T09:13:48.341Z,4.10
2017-07-08T09:16:15.148Z,4.33
2017-07-08T09:18:41.201Z,5.03
2017-07-08T09:21:07.225Z,4.40
2017-07-08T09:23:33.245Z,5.40
2017-07-08T09:25:59.293Z,4.83
2017-07-08T09:28:26.278Z,4.40
2017-07-08T09:30:52.262Z,4.57
2017-07-08T09:33:18.307Z,3.97
2017-07-08T09:35:44.364Z,4.30
2017-07-08T09:38:10.421Z,4.60
2017-07-08T09:40:36.461Z,3.73
2017-07-08T09:43:02.493Z,3.70
2017-07-08T09:45:29.363Z,4.10
2017-07-08T09:47:55.433Z,3.87
2017-07-08T09:50:22.214Z,3.50
2017-07-08T09:52:48.245Z,3.90
2017-07-08T09:55:14.277Z,3.70
2017-07-08T09:57:40.316Z,3.83
2017-07-08T10:00:06.357Z,3.53
2017-07-08T10:02:32.388Z,3.80
2017-07-08T10:04:58.405Z,4.40
2017-07-08T10:07:25.192Z,3.60
2017-07-08T10:09:51.210Z,5.10
2017-07-08T10:12:17.253Z,4.43
2017-07-08T10:14:44.033Z,5.60
2017-07-08T10:17:10.072Z,4.83
2017-07-08T10:19:36.113Z,4.47
2017-07-08T10:22:02.153Z,4.23
2017-07-08T10:24:28.158Z,4.53
2017-07-08T10:26:54.178Z,3.80
2017-07-08T10:29:20.206Z,4.13
2017-07-08T10:31:46.238Z,4.20
2017-07-08T10:34:13.065Z,4.70
2017-07-08T10:36:39.837Z,5.30
2017-07-08T10:39:05.860Z,4.83
2017-07-08T10:41:31.881Z,5.17
2017-07-08T10:43:57.909Z,5.10
2017-07-08T10:46:23.933Z,5.30
2017-07-08T10:48:50.696Z,4.80
2017-07-08T10:51:16.713Z,5.57
2017-07-08T10:53:42.745Z,4.70
2017-07-08T10:56:08.773Z,4.97
2017-07-08T10:58:34.889Z,4.00
2017-07-08T11:01:01.706Z,4.40
2017-07-08T11:03:28.472Z,4.37
2017-07-08T11:06:01.389Z,5.20
2017-07-08T11:08:27.430Z,4.57
2017-07-08T11:10:53.469Z,4.10
2017-07-08T11:13:19.485Z,5.13
2017-07-08T11:15:45.513Z,5.63
2017-07-08T11:18:11.537Z,4.63
2017-07-08T11:20:37.586Z,5.57
2017-07-08T11:23:03.648Z,5.77
2017-07-08T11:25:29.693Z,5.40
2017-07-08T11:27:55.726Z,5.17
2017-07-08T11:30:21.765Z,5.43
2017-07-08T11:32:47.862Z,5.23
2017-07-08T11:35:13.885Z,4.27
2017-07-08T11:37:39.944Z,5.60
2017-07-08T11:40:05.965Z,5.30
2017-07-08T11:42:31.986Z,4.00
2017-07-08T11:44:58.025Z,5.27
2017-07-08T11:47:24.065Z,4.73
2017-07-08T11:49:50.830Z,4.37
2017-07-08T11:52:16.858Z,4.97
2017-07-08T11:54:42.906Z,4.87
2017-07-08T11:57:09.670Z,4.70
2017-07-08T11:59:35.721Z,4.80
2017-07-08T12:02:01.753Z,5.13
2017-07-08T12:04:28.521Z,5.90
2017-07-08T12:06:54.541Z,5.03
2017-07-08T12:09:20.581Z,5.03
2017-07-08T12:11:47.362Z,5.00
2017-07-08T12:14:13.374Z,4.97
2017-07-08T12:16:39.413Z,6.10
2017-07-08T12:19:05.457Z,5.20
2017-07-08T12:21:31.490Z,5.97
2017-07-08T12:23:57.523Z,6.80
2017-07-08T12:26:23.565Z,6.03
2017-07-08T12:28:50.353Z,5.67
2017-07-08T12:31:16.389Z,5.20
2017-07-08T12:33:42.473Z,5.37
2017-07-08T12:36:08.538Z,4.87
2017-07-08T12:38:35.410Z,5.70
2017-07-08T12:41:01.432Z,5.17
2017-07-08T12:43:27.465Z,5.20
2017-07-08T12:45:54.270Z,4.80
2017-07-08T12:48:20.301Z,5.50
2017-07-08T12:50:47.074Z,4.37
2017-07-08T12:53:13.101Z,4.37
2017-07-08T12:55:39.140Z,5.20
2017-07-08T12:58:05.924Z,5.10
2017-07-08T13:00:31.942Z,4.70
2017-07-08T13:02:57.990Z,5.53
2017-07-08T13:05:24.026Z,5.00
2017-07-08T13:07:50.057Z,4.40
2017-07-08T13:10:16.090Z,4.53
2017-07-08T13:12:42.145Z,4.17
2017-07-08T13:15:08.177Z,4.00
2017-07-08T13:17:34.546Z,5.23
2017-07-08T13:20:00.691Z,4.53
2017-07-08T13:22:26.708Z,4.40
2017-07-08T13:24:52.725Z,4.67
2017-07-08T13:27:18.763Z,4.40
2017-07-08T13:29:44.789Z,4.87
2017-07-08T13:32:11.568Z,3.93
2017-07-08T13:34:37.586Z,4.10
2017-07-08T13:37:03.645Z,4.60
2017-07-08T13:39:29.719Z,4.30
2017-07-08T13:41:55.802Z,4.20
2017-07-08T13:44:36.801Z,4.33
2017-07-08T13:47:02.875Z,5.10
2017-07-08T13:49:28.907Z,4.30
2017-07-08T13:51:54.945Z,4.57
2017-07-08T13:54:21.721Z,5.60
2017-07-08T13:56:47.784Z,4.60
2017-07-08T13:59:13.817Z,4.37
2017-07-08T14:01:40.221Z,4.27
2017-07-08T14:04:06.321Z,5.07
2017-07-08T14:06:32.353Z,3.70
2017-07-08T14:08:58.380Z,4.13
2017-07-08T14:11:24.401Z,4.33
2017-07-08T14:13:50.429Z,3.63
2017-07-08T14:16:16.454Z,4.40
2017-07-08T14:18:49.665Z,3.53
2017-07-08T14:21:15.687Z,3.30
2017-07-08T14:23:41.730Z,3.63
2017-07-08T14:26:07.750Z,4.37
2017-07-08T14:28:34.565Z,4.47
2017-07-08T14:31:01.342Z,3.80
2017-07-08T14:33:27.439Z,4.90
2017-07-08T14:35:54.310Z,3.73
2017-07-08T14:38:20.422Z,3.30
2017-07-08T14:40:46.454Z,3.70
2017-07-08T14:43:13.092Z,4.23
2017-07-08T14:45:39.276Z,3.57
2017-07-08T14:48:05.336Z,3.30
2017-07-08T14:50:31.382Z,3.30
2017-07-08T14:52:57.441Z,3.60
2017-07-08T14:55:23.489Z,3.70
2017-07-08T14:57:49.543Z,2.63
2017-07-08T15:00:16.343Z,3.17
2017-07-08T15:02:42.382Z,3.20
2017-07-08T15:05:09.165Z,3.33
2017-07-08T15:07:35.219Z,3.57
2017-07-08T15:10:01.997Z,3.73
2017-07-08T15:12:28.025Z,3.50
2017-07-08T15:14:54.045Z,3.10
2017-07-08T15:17:20.822Z,3.70
2017-07-08T15:19:46.845Z,3.67
2017-07-08T15:22:12.909Z,3.17
2017-07-08T15:24:38.941Z,3.47
2017-07-08T15:27:04.990Z,2.93
2017-07-08T15:29:31.049Z,2.60
2017-07-08T15:31:57.249Z,2.70
2017-07-08T15:34:24.041Z,3.50
2017-07-08T15:36:50.090Z,2.70
2017-07-08T15:39:16.130Z,2.60
2017-07-08T15:41:42.152Z,2.43
2017-07-08T15:44:08.172Z,2.87
2017-07-08T15:46:34.200Z,1.93
2017-07-08T15:49:00.233Z,2.50
2017-07-08T15:51:26.254Z,2.60
2017-07-08T15:53:52.293Z,2.77
2017-07-08T15:56:18.325Z,2.10
2017-07-08T15:58:45.110Z,2.17
2017-07-08T16:01:11.178Z,3.57
2017-07-08T16:03:37.292Z,2.80
2017-07-08T16:06:04.069Z,2.47
2017-07-08T16:08:30.125Z,2.60
2017-07-08T16:10:56.177Z,2.50
2017-07-08T16:13:22.219Z,2.53
2017-07-08T16:15:48.256Z,2.23
2017-07-08T16:18:14.285Z,2.13
2017-07-08T16:20:40.361Z,2.57
2017-07-08T16:23:07.128Z,2.60
2017-07-08T16:25:33.150Z,3.30
2017-07-08T16:27:59.176Z,2.80
2017-07-08T16:30:25.189Z,2.73
2017-07-08T16:32:51.222Z,2.73
2017-07-08T16:35:18.017Z,2.40
2017-07-08T16:37:44.063Z,2.80
2017-07-08T16:40:10.835Z,3.10
2017-07-08T16:42:36.877Z,2.33
2017-07-08T16:45:02.906Z,3.00
2017-07-08T16:47:29.705Z,2.83
2017-07-08T16:49:55.896Z,2.80
2017-07-08T16:52:21.969Z,2.90
2017-07-08T16:54:48.050Z,3.10
2017-07-08T16:57:14.087Z,3.20
2017-07-08T16:59:40.151Z,3.33
2017-07-08T17:02:06.998Z,4.73
2017-07-08T17:04:33.042Z,3.10
2017-07-08T17:06:59.070Z,3.80
2017-07-08T17:09:25.100Z,2.90
2017-07-08T17:11:51.105Z,3.40
2017-07-08T17:14:17.171Z,3.33
2017-07-08T17:16:43.202Z,3.97
2017-07-08T17:19:09.266Z,3.50
2017-07-08T17:21:36.022Z,3.77
2017-07-08T17:24:02.039Z,3.30
2017-07-08T17:26:28.066Z,3.50
2017-07-08T17:28:54.086Z,3.33
2017-07-08T17:31:20.109Z,3.17
2017-07-08T17:33:46.209Z,3.77
2017-07-08T17:36:12.275Z,3.43
2017-07-08T17:38:38.330Z,4.00
2017-07-08T17:41:04.373Z,3.60
2017-07-08T17:43:31.159Z,3.37
2017-07-08T17:45:57.197Z,2.80
2017-07-08T17:48:23.258Z,3.80
2017-07-08T17:50:49.517Z,3.33
2017-07-08T17:53:16.322Z,4.40
2017-07-08T17:55:42.358Z,4.30
2017-07-08T17:58:09.155Z,3.70
2017-07-08T18:00:35.194Z,3.93
2017-07-08T18:03:01.985Z,3.40
2017-07-08T18:05:28.009Z,3.97
2017-07-08T18:07:54.046Z,3.70
2017-07-08T18:10:20.842Z,3.37
2017-07-08T18:12:46.877Z,3.53
2017-07-08T18:15:12.905Z,2.90
2017-07-08T18:17:38.950Z,3.73
2017-07-08T18:20:04.986Z,3.50
2017-07-08T18:22:31.038Z,3.97
2017-07-08T18:24:57.063Z,3.40
2017-07-08T18:27:23.142Z,3.47
2017-07-08T18:29:49.204Z,3.70
2017-07-08T18:32:15.247Z,3.80
2017-07-08T18:34:41.317Z,3.80
2017-07-08T18:37:07.350Z,3.80
2017-07-08T18:39:33.405Z,4.07
2017-07-08T18:41:59.439Z,3.43
2017-07-08T18:44:25.494Z,3.23
2017-07-08T18:46:51.533Z,3.77
2017-07-08T18:49:17.564Z,3.67
2017-07-08T18:51:43.592Z,3.20
2017-07-08T18:54:09.649Z,2.97
2017-07-08T18:56:35.678Z,3.47
2017-07-08T18:59:01.707Z,3.60
2017-07-08T19:01:27.777Z,3.67
2017-07-08T19:03:53.825Z,3.00
2017-07-08T19:06:19.863Z,3.40
2017-07-08T19:08:46.649Z,3.20
2017-07-08T19:11:12.733Z,3.47
2017-07-08T19:13:38.761Z,3.90
2017-07-08T19:16:04.786Z,3.07
2017-07-08T19:18:30.805Z,3.17
2017-07-08T19:20:56.840Z,3.23
2017-07-08T19:23:22.899Z,3.57
2017-07-08T19:25:48.929Z,3.60
2017-07-08T19:28:14.950Z,3.87
2017-07-08T19:30:41.765Z,5.00
2017-07-08T19:33:08.546Z,4.40
2017-07-08T19:35:34.593Z,3.73
2017-07-08T19:38:00.633Z,3.47
2017-07-08T19:40:27.400Z,3.90
2017-07-08T19:42:53.430Z,3.77
2017-07-08T19:45:19.473Z,3.93
2017-07-08T19:47:46.309Z,3.87
2017-07-08T19:50:13.095Z,3.80
2017-07-08T19:52:39.126Z,4.07
2017-07-08T19:55:05.146Z,3.67
2017-07-08T19:57:31.926Z,3.43
2017-07-08T19:59:57.990Z,4.23
2017-07-08T20:02:24.024Z,3.60
2017-07-08T20:04:50.081Z,4.20
2017-07-08T20:07:16.132Z,4.10
2017-07-08T20:09:42.156Z,4.10
2017-07-08T20:12:08.189Z,4.37
2017-07-08T20:14:34.231Z,4.30
2017-07-08T20:17:00.994Z,4.00
2017-07-08T20:19:27.038Z,3.90
2017-07-08T20:21:53.093Z,4.77
2017-07-08T20:24:19.130Z,4.20
2017-07-08T20:26:45.169Z,4.20
2017-07-08T20:29:11.207Z,5.20
2017-07-08T20:31:37.973Z,4.80
2017-07-08T20:34:04.021Z,4.43
2017-07-08T20:36:30.051Z,4.40
2017-07-08T20:38:56.085Z,4.30
2017-07-08T20:41:22.130Z,4.50
2017-07-08T20:43:48.161Z,4.30
2017-07-08T20:46:14.299Z,4.57
2017-07-08T20:48:40.357Z,5.07
2017-07-08T20:51:06.397Z,3.80
2017-07-08T20:53:32.480Z,4.13
2017-07-08T20:55:58.562Z,4.43
2017-07-08T20:58:24.630Z,4.40
2017-07-08T21:00:51.481Z,4.40
2017-07-08T21:03:17.537Z,4.57
2017-07-08T21:05:43.681Z,4.87
2017-07-08T21:08:10.450Z,4.77
2017-07-08T21:10:36.494Z,4.90
2017-07-08T21:13:02.567Z,4.83
2017-07-08T21:15:28.596Z,4.60
2017-07-08T21:17:54.628Z,5.27
2017-07-08T21:20:20.698Z,4.53
2017-07-08T21:22:46.736Z,5.10
2017-07-08T21:25:12.795Z,5.70
2017-07-08T21:27:38.861Z,5.20
2017-07-08T21:30:04.885Z,4.60
2017-07-08T21:32:31.090Z,4.77
2017-07-08T21:34:57.874Z,4.80
2017-07-08T21:37:24.026Z,7.13
2017-07-08T21:39:50.862Z,5.27
2017-07-08T21:42:17.630Z,5.60
2017-07-08T21:44:43.702Z,5.50
2017-07-08T21:47:09.729Z,5.37
2017-07-08T21:49:35.792Z,5.90
2017-07-08T21:52:01.826Z,5.70
2017-07-08T21:54:28.645Z,5.53
2017-07-08T21:56:55.518Z,5.10
2017-07-08T21:59:22.254Z,5.40
2017-07-08T22:01:48.290Z,6.00
2017-07-08T22:04:14.346Z,6.83
2017-07-08T22:06:40.379Z,5.80
2017-07-08T22:09:06.469Z,6.23
2017-07-08T22:11:32.505Z,5.53
2017-07-08T22:13:58.553Z,5.90
2017-07-08T22:16:25.327Z,6.00
2017-07-08T22:18:51.416Z,5.53
2017-07-08T22:21:17.465Z,6.20
2017-07-08T22:23:43.520Z,7.27
2017-07-08T22:26:09.557Z,6.97
2017-07-08T22:28:35.590Z,7.40
2017-07-08T22:31:01.669Z,5.80
2017-07-08T22:33:27.751Z,6.50
2017-07-08T22:35:54.524Z,5.47
2017-07-08T22:38:20.545Z,6.33
2017-07-08T22:40:46.578Z,6.73
2017-07-08T22:43:12.599Z,6.47
2017-07-08T22:45:38.652Z,6.67
2017-07-08T22:48:04.705Z,7.23
2017-07-08T22:50:31.554Z,6.97
2017-07-08T22:52:57.554Z,6.50
2017-07-08T22:55:24.343Z,6.87
2017-07-08T22:57:50.390Z,8.40
2017-07-08T23:00:16.450Z,6.27
2017-07-08T23:02:42.485Z,6.97
2017-07-08T23:05:08.536Z,6.27
2017-07-08T23:07:34.558Z,7.10
2017-07-08T23:10:00.602Z,7.43
2017-07-08T23:12:26.660Z,7.50
2017-07-08T23:14:52.689Z,7.43
2017-07-08T23:17:18.749Z,7.20
2017-07-08T23:19:45.517Z,8.30
2017-07-08T23:22:11.545Z,7.73
2017-07-08T23:24:37.582Z,6.97
2017-07-08T23:27:03.617Z,7.27
2017-07-08T23:29:30.418Z,7.07
2017-07-08T23:31:56.477Z,7.00
2017-07-08T23:34:22.541Z,7.10
2017-07-08T23:36:49.317Z,7.30
2017-07-08T23:39:15.360Z,8.27
2017-07-08T23:41:41.413Z,7.60
2017-07-08T23:44:07.514Z,9.20
2017-07-08T23:46:33.537Z,8.03
2017-07-08T23:48:59.621Z,6.70
2017-07-08T23:51:26.389Z,8.00
2017-07-08T23:53:52.423Z,7.70
2017-07-08T23:56:18.482Z,7.90
2017-07-08T23:58:44.519Z,7.53
